createdAt,value
2018-05-01T00:00:50.398Z,12.50
2018-05-01T00:03:18.679Z,12.50
2018-05-01T00:05:46.945Z,12.50
2018-05-01T00:08:14.455Z,12.50
2018-05-01T00:10:41.967Z,12.60
2018-05-01T00:13:09.498Z,12.60
2018-05-01T00:15:37.005Z,12.60
2018-05-01T00:18:04.507Z,12.50
2018-05-01T00:20:32.036Z,12.50
2018-05-01T00:22:59.544Z,12.40
2018-05-01T00:25:27.058Z,12.30
2018-05-01T00:27:54.576Z,12.30
2018-05-01T00:30:22.080Z,12.20
2018-05-01T00:32:49.608Z,12.10
2018-05-01T00:35:17.124Z,12.10
2018-05-01T00:37:45.409Z,11.80
2018-05-01T00:40:13.674Z,11.70
2018-05-01T00:42:41.385Z,11.60
2018-05-01T00:45:08.951Z,11.60
2018-05-01T00:47:36.453Z,11.60
2018-05-01T00:50:03.965Z,11.70
2018-05-01T00:52:43.271Z,11.70
2018-05-01T00:55:10.803Z,11.70
2018-05-01T00:57:38.309Z,11.70
2018-05-01T01:00:06.656Z,11.70
2018-05-01T01:02:34.167Z,11.70
2018-05-01T01:05:02.443Z,11.70
2018-05-01T01:07:30.725Z,11.70
2018-05-01T01:09:58.247Z,11.70
2018-05-01T01:12:26.544Z,11.70
2018-05-01T01:14:54.064Z,11.70
2018-05-01T01:17:21.570Z,11.70
2018-05-01T01:19:49.089Z,11.60
2018-05-01T01:22:16.591Z,11.60
2018-05-01T01:24:44.093Z,11.60
2018-05-01T01:27:11.689Z,11.60
2018-05-01T01:29:39.153Z,11.50
2018-05-01T01:32:14.655Z,11.40
2018-05-01T01:34:42.947Z,11.20
2018-05-01T01:37:09.963Z,11.20
2018-05-01T01:39:37.748Z,11.20
2018-05-01T01:42:05.535Z,11.10
2018-05-01T01:44:32.560Z,11.10
2018-05-01T01:46:59.604Z,11.10
2018-05-01T01:49:28.130Z,11.00
2018-05-01T01:51:55.153Z,11.00
2018-05-01T01:54:22.199Z,10.90
2018-05-01T01:56:49.215Z,10.90
2018-05-01T01:59:16.228Z,10.90
2018-05-01T02:01:44.006Z,10.90
2018-05-01T02:04:11.048Z,10.90
2018-05-01T02:06:38.849Z,10.90
2018-05-01T02:09:05.858Z,10.90
2018-05-01T02:11:33.674Z,10.90
2018-05-01T02:14:00.693Z,10.90
2018-05-01T02:16:28.490Z,11.10
2018-05-01T02:18:55.513Z,11.10
2018-05-01T02:21:23.305Z,11.20
2018-05-01T02:23:50.331Z,11.20
2018-05-01T02:26:18.104Z,11.30
2018-05-01T02:28:45.917Z,11.30
2018-05-01T02:31:12.940Z,11.30
2018-05-01T02:33:39.966Z,11.30
2018-05-01T02:36:06.984Z,11.20
2018-05-01T02:38:34.004Z,10.80
2018-05-01T02:41:01.821Z,10.60
2018-05-01T02:43:28.901Z,10.60
2018-05-01T02:45:56.730Z,10.50
2018-05-01T02:48:23.765Z,10.50
2018-05-01T02:50:50.805Z,10.50
2018-05-01T02:53:17.835Z,10.60
2018-05-01T02:55:45.642Z,10.60
2018-05-01T02:58:12.660Z,10.60
2018-05-01T03:00:40.585Z,10.70
2018-05-01T03:03:07.616Z,10.60
2018-05-01T03:05:34.636Z,10.70
2018-05-01T03:08:02.505Z,10.80
2018-05-01T03:10:29.471Z,10.70
2018-05-01T03:12:56.501Z,10.80
2018-05-01T03:15:23.513Z,10.80
2018-05-01T03:17:50.556Z,10.90
2018-05-01T03:20:17.567Z,10.90
2018-05-01T03:22:45.350Z,11.00
2018-05-01T03:25:13.144Z,11.00
2018-05-01T03:27:40.167Z,11.00
2018-05-01T03:30:07.987Z,11.10
2018-05-01T03:32:35.004Z,11.10
2018-05-01T03:35:02.013Z,11.10
2018-05-01T03:37:30.555Z,11.10
2018-05-01T03:39:57.579Z,11.10
2018-05-01T03:42:25.382Z,11.20
2018-05-01T03:44:52.399Z,11.20
2018-05-01T03:47:20.198Z,11.20
2018-05-01T03:49:47.213Z,11.10
2018-05-01T03:52:15.029Z,11.10
2018-05-01T03:54:42.041Z,11.10
2018-05-01T03:57:09.830Z,11.10
2018-05-01T03:59:36.851Z,11.10
2018-05-01T04:02:04.635Z,10.80
2018-05-01T04:04:32.423Z,10.70
2018-05-01T04:06:59.444Z,10.70
2018-05-01T04:09:27.248Z,10.70
2018-05-01T04:11:54.269Z,10.70
2018-05-01T04:14:22.068Z,10.60
2018-05-01T04:16:49.088Z,10.60
2018-05-01T04:19:16.096Z,10.70
2018-05-01T04:21:43.137Z,10.70
2018-05-01T04:24:10.157Z,10.80
2018-05-01T04:26:37.956Z,10.60
2018-05-01T04:29:04.972Z,10.50
2018-05-01T04:31:32.765Z,10.60
2018-05-01T04:33:59.771Z,10.50
2018-05-01T04:36:26.833Z,10.50
2018-05-01T04:38:53.870Z,10.50
2018-05-01T04:41:20.905Z,10.50
2018-05-01T04:43:47.933Z,10.50
2018-05-01T04:46:14.943Z,10.50
2018-05-01T04:48:41.982Z,10.40
2018-05-01T04:51:09.006Z,10.60
2018-05-01T04:53:36.053Z,10.60
2018-05-01T04:56:03.075Z,10.40
2018-05-01T04:58:30.937Z,10.40
2018-05-01T05:00:57.932Z,10.30
2018-05-01T05:03:25.715Z,10.60
2018-05-01T05:05:52.743Z,10.50
2018-05-01T05:08:19.760Z,10.80
2018-05-01T05:10:47.553Z,11.10
2018-05-01T05:13:14.578Z,11.10
2018-05-01T05:15:41.629Z,11.20
2018-05-01T05:18:08.652Z,11.30
2018-05-01T05:20:35.687Z,11.40
2018-05-01T05:23:02.727Z,11.50
2018-05-01T05:25:29.760Z,11.50
2018-05-01T05:27:57.567Z,11.60
2018-05-01T05:30:24.584Z,11.60
2018-05-01T05:32:52.366Z,11.80
2018-05-01T05:35:19.418Z,11.80
2018-05-01T05:37:46.431Z,12.00
2018-05-01T05:40:13.472Z,12.10
2018-05-01T05:42:40.527Z,12.20
2018-05-01T05:45:07.561Z,12.20
2018-05-01T05:47:34.583Z,12.30
2018-05-01T05:50:01.607Z,12.30
2018-05-01T05:52:29.411Z,12.30
2018-05-01T05:54:56.429Z,12.20
2018-05-01T05:57:24.227Z,12.20
2018-05-01T05:59:52.009Z,12.20
2018-05-01T06:02:19.038Z,12.20
2018-05-01T06:04:46.063Z,12.20
2018-05-01T06:07:13.116Z,12.10
2018-05-01T06:09:40.145Z,12.10
2018-05-01T06:12:07.160Z,12.10
2018-05-01T06:14:34.957Z,12.30
2018-05-01T06:17:01.987Z,12.30
2018-05-01T06:19:29.008Z,12.30
2018-05-01T06:21:56.804Z,12.40
2018-05-01T06:24:23.876Z,12.30
2018-05-01T06:26:50.896Z,12.40
2018-05-01T06:29:18.684Z,12.40
2018-05-01T06:31:45.726Z,12.30
2018-05-01T06:34:12.777Z,12.40
2018-05-01T06:36:39.940Z,12.50
2018-05-01T06:39:06.975Z,12.50
2018-05-01T06:41:34.755Z,12.70
2018-05-01T06:44:01.843Z,12.70
2018-05-01T06:46:28.858Z,12.80
2018-05-01T06:48:55.904Z,12.80
2018-05-01T06:51:23.705Z,12.90
2018-05-01T06:53:50.734Z,12.80
2018-05-01T06:56:18.544Z,12.90
2018-05-01T06:58:45.571Z,12.90
2018-05-01T07:01:12.624Z,12.90
2018-05-01T07:03:39.650Z,13.00
2018-05-01T07:06:07.431Z,13.10
2018-05-01T07:08:34.464Z,13.10
2018-05-01T07:11:02.266Z,13.20
2018-05-01T07:13:29.309Z,13.20
2018-05-01T07:15:56.350Z,13.30
2018-05-01T07:18:23.423Z,13.40
2018-05-01T07:20:50.446Z,13.50
2018-05-01T07:23:18.246Z,13.60
2018-05-01T07:25:46.035Z,13.60
2018-05-01T07:28:13.068Z,13.60
2018-05-01T07:30:40.116Z,13.50
2018-05-01T07:33:07.138Z,13.50
2018-05-01T07:35:34.218Z,13.50
2018-05-01T07:38:02.009Z,13.70
2018-05-01T07:40:29.032Z,13.60
2018-05-01T07:42:56.864Z,13.70
2018-05-01T07:45:23.896Z,13.70
2018-05-01T07:47:50.943Z,13.80
2018-05-01T07:50:17.961Z,13.90
2018-05-01T07:52:44.999Z,14.00
2018-05-01T07:55:12.782Z,14.00
2018-05-01T07:57:40.597Z,14.10
2018-05-01T08:00:08.382Z,14.10
2018-05-01T08:02:35.399Z,14.10
2018-05-01T08:05:02.441Z,14.20
2018-05-01T08:07:29.467Z,14.30
2018-05-01T08:09:57.347Z,14.30
2018-05-01T08:12:24.322Z,14.30
2018-05-01T08:14:51.371Z,14.30
2018-05-01T08:17:18.400Z,14.30
2018-05-01T08:19:46.217Z,14.30
2018-05-01T08:22:13.246Z,14.30
2018-05-01T08:24:40.263Z,14.40
2018-05-01T08:27:07.311Z,14.50
2018-05-01T08:29:34.353Z,14.60
2018-05-01T08:32:01.415Z,14.70
2018-05-01T08:34:28.424Z,14.60
2018-05-01T08:36:55.492Z,14.50
2018-05-01T08:39:22.510Z,14.50
2018-05-01T08:41:49.534Z,14.60
2018-05-01T08:44:16.621Z,14.80
2018-05-01T08:46:43.673Z,14.90
2018-05-01T08:49:10.716Z,15.10
2018-05-01T08:51:37.757Z,15.20
2018-05-01T08:54:05.591Z,15.70
2018-05-01T08:56:32.636Z,15.70
2018-05-01T08:58:59.686Z,15.80
2018-05-01T09:01:26.751Z,15.80
2018-05-01T09:03:53.795Z,15.60
2018-05-01T09:06:20.859Z,15.50
2018-05-01T09:08:47.940Z,15.40
2018-05-01T09:11:15.766Z,15.40
2018-05-01T09:13:42.836Z,15.30
2018-05-01T09:16:09.882Z,15.50
2018-05-01T09:18:36.955Z,15.40
2018-05-01T09:21:04.868Z,15.60
2018-05-01T09:23:32.025Z,15.60
2018-05-01T09:25:59.066Z,15.70
2018-05-01T09:28:26.120Z,15.70
2018-05-01T09:30:53.201Z,15.80
2018-05-01T09:33:20.655Z,16.00
2018-05-01T09:35:47.742Z,16.20
2018-05-01T09:38:14.808Z,16.40
2018-05-01T09:40:41.913Z,16.50
2018-05-01T09:43:08.980Z,16.60
2018-05-01T09:45:36.029Z,16.60
2018-05-01T09:48:03.117Z,16.60
2018-05-01T09:50:30.181Z,16.50
2018-05-01T09:52:57.816Z,16.60
2018-05-01T09:55:25.367Z,16.50
2018-05-01T09:57:52.917Z,16.40
2018-05-01T10:00:24.424Z,16.30
2018-05-01T10:02:51.955Z,16.30
2018-05-01T10:05:19.460Z,16.40
2018-05-01T10:07:46.999Z,16.30
2018-05-01T10:10:14.522Z,16.20
2018-05-01T10:12:42.037Z,16.10
2018-05-01T10:15:09.574Z,16.20
2018-05-01T10:17:37.128Z,16.20
2018-05-01T10:20:04.671Z,16.30
2018-05-01T10:22:32.245Z,16.30
2018-05-01T10:24:59.762Z,16.10
2018-05-01T10:27:27.308Z,16.20
2018-05-01T10:29:54.839Z,16.20
2018-05-01T10:32:22.410Z,16.20
2018-05-01T10:34:49.956Z,16.00
2018-05-01T10:37:17.472Z,16.00
2018-05-01T10:39:45.001Z,15.70
2018-05-01T10:42:12.524Z,15.70
2018-05-01T10:44:40.042Z,15.70
2018-05-01T10:47:07.572Z,15.60
2018-05-01T10:49:35.106Z,15.60
2018-05-01T10:52:03.329Z,15.60
2018-05-01T10:54:30.864Z,15.70
2018-05-01T10:56:59.185Z,15.60
2018-05-01T10:59:26.703Z,15.50
2018-05-01T11:01:54.269Z,15.60
2018-05-01T11:04:22.599Z,15.70
2018-05-01T11:06:50.166Z,15.70
2018-05-01T11:09:17.725Z,15.70
2018-05-01T11:11:45.271Z,15.70
2018-05-01T11:14:12.813Z,15.70
2018-05-01T11:16:41.136Z,15.80
2018-05-01T11:19:08.712Z,15.70
2018-05-01T11:21:36.278Z,15.70
2018-05-01T11:24:03.869Z,15.70
2018-05-01T11:26:32.181Z,15.70
2018-05-01T11:28:59.712Z,15.70
2018-05-01T11:31:27.247Z,15.70
2018-05-01T11:33:54.768Z,15.70
2018-05-01T11:36:23.057Z,15.70
2018-05-01T11:38:51.350Z,15.70
2018-05-01T11:41:18.878Z,15.70
2018-05-01T11:43:46.399Z,15.70
2018-05-01T11:46:13.948Z,15.70
2018-05-01T11:48:41.473Z,15.60
2018-05-01T11:51:09.750Z,15.80
2018-05-01T11:53:37.381Z,15.80
2018-05-01T11:56:04.841Z,15.80
2018-05-01T11:58:32.385Z,15.80
2018-05-01T12:00:59.937Z,15.70
2018-05-01T12:03:27.481Z,15.60
2018-05-01T12:05:55.782Z,15.60
2018-05-01T12:08:23.305Z,15.60
2018-05-01T12:10:50.840Z,15.70
2018-05-01T12:13:18.352Z,15.60
2018-05-01T12:15:45.896Z,15.70
2018-05-01T12:18:13.409Z,15.70
2018-05-01T12:20:41.002Z,15.60
2018-05-01T12:23:08.533Z,15.50
2018-05-01T12:25:36.058Z,15.40
2018-05-01T12:28:03.598Z,15.40
2018-05-01T12:30:31.136Z,15.40
2018-05-01T12:32:58.706Z,15.40
2018-05-01T12:35:26.228Z,15.50
2018-05-01T12:37:54.522Z,15.60
2018-05-01T12:40:22.798Z,15.60
2018-05-01T12:42:51.108Z,15.60
2018-05-01T12:45:18.633Z,15.60
2018-05-01T12:47:46.917Z,15.70
2018-05-01T12:50:15.221Z,15.80
2018-05-01T12:52:43.496Z,15.80
2018-05-01T12:55:11.812Z,15.80
2018-05-01T12:57:39.336Z,15.80
2018-05-01T13:00:07.662Z,15.80
2018-05-01T13:02:35.192Z,15.80
2018-05-01T13:05:02.765Z,15.70
2018-05-01T13:07:30.300Z,15.70
2018-05-01T13:09:57.896Z,15.70
2018-05-01T13:12:25.534Z,15.70
2018-05-01T13:14:53.125Z,15.70
2018-05-01T13:17:20.696Z,15.70
2018-05-01T13:19:48.272Z,15.60
2018-05-01T13:22:15.804Z,15.40
2018-05-01T13:24:44.133Z,15.40
2018-05-01T13:27:11.655Z,15.40
2018-05-01T13:29:39.979Z,15.60
2018-05-01T13:32:07.509Z,15.50
2018-05-01T13:34:35.064Z,15.50
2018-05-01T13:37:03.413Z,15.40
2018-05-01T13:39:31.009Z,15.40
2018-05-01T13:41:58.606Z,15.40
2018-05-01T13:44:26.140Z,15.50
2018-05-01T13:46:53.683Z,15.60
2018-05-01T13:49:21.977Z,15.80
2018-05-01T13:51:50.255Z,15.80
2018-05-01T13:54:18.626Z,15.70
2018-05-01T13:56:46.156Z,15.70
2018-05-01T13:59:13.747Z,15.60
2018-05-01T14:01:41.307Z,15.40
2018-05-01T14:04:08.891Z,15.40
2018-05-01T14:06:37.195Z,15.40
2018-05-01T14:09:04.770Z,15.30
2018-05-01T14:11:32.359Z,15.50
2018-05-01T14:14:00.773Z,15.50
2018-05-01T14:16:28.343Z,15.50
2018-05-01T14:18:56.672Z,15.60
2018-05-01T14:21:24.237Z,15.50
2018-05-01T14:23:51.789Z,15.60
2018-05-01T14:26:19.354Z,15.70
2018-05-01T14:28:46.993Z,15.70
2018-05-01T14:31:15.274Z,15.90
2018-05-01T14:33:42.813Z,15.90
2018-05-01T14:36:10.357Z,15.80
2018-05-01T14:38:37.881Z,15.60
2018-05-01T14:41:06.194Z,15.60
2018-05-01T14:43:33.715Z,15.50
2018-05-01T14:46:02.091Z,15.60
2018-05-01T14:48:29.550Z,15.60
2018-05-01T14:50:57.124Z,15.40
2018-05-01T14:53:25.431Z,15.60
2018-05-01T14:55:52.945Z,15.60
2018-05-01T14:58:20.504Z,15.40
2018-05-01T15:00:48.036Z,15.20
2018-05-01T15:03:15.588Z,15.20
2018-05-01T15:05:43.130Z,15.30
2018-05-01T15:08:11.483Z,15.20
2018-05-01T15:10:39.029Z,15.20
2018-05-01T15:13:06.598Z,15.10
2018-05-01T15:15:34.132Z,15.20
2018-05-01T15:18:01.682Z,15.30
2018-05-01T15:20:29.224Z,15.30
2018-05-01T15:22:56.832Z,15.40
2018-05-01T15:25:25.399Z,15.40
2018-05-01T15:27:52.875Z,15.40
2018-05-01T15:30:20.441Z,15.40
2018-05-01T15:32:48.026Z,15.30
2018-05-01T15:35:16.184Z,15.30
2018-05-01T15:37:43.778Z,15.30
2018-05-01T15:40:11.330Z,15.30
2018-05-01T15:42:38.855Z,15.20
2018-05-01T15:45:07.219Z,15.00
2018-05-01T15:47:34.751Z,15.00
2018-05-01T15:50:02.392Z,15.00
2018-05-01T15:52:29.968Z,15.00
2018-05-01T15:54:57.533Z,15.10
2018-05-01T15:57:25.085Z,15.20
2018-05-01T15:59:52.616Z,15.20
2018-05-01T16:02:20.932Z,15.20
2018-05-01T16:04:48.473Z,15.20
2018-05-01T16:07:16.783Z,15.30
2018-05-01T16:09:44.367Z,15.30
2018-05-01T16:12:11.877Z,15.30
2018-05-01T16:14:40.245Z,15.20
2018-05-01T16:17:09.250Z,15.20
2018-05-01T16:19:37.559Z,15.20
2018-05-01T16:22:05.056Z,15.20
2018-05-01T16:24:32.607Z,15.20
2018-05-01T16:27:00.138Z,15.20
2018-05-01T16:29:28.441Z,15.00
2018-05-01T16:31:55.950Z,15.00
2018-05-01T16:34:23.486Z,15.00
2018-05-01T16:36:51.017Z,15.00
2018-05-01T16:39:18.637Z,15.00
2018-05-01T16:41:46.183Z,15.00
2018-05-01T16:44:13.710Z,15.00
2018-05-01T16:46:41.250Z,15.00
2018-05-01T16:49:08.826Z,15.00
2018-05-01T16:51:37.154Z,15.10
2018-05-01T16:54:04.684Z,15.10
2018-05-01T16:56:32.981Z,14.90
2018-05-01T16:59:00.565Z,14.90
2018-05-01T17:01:28.210Z,14.80
2018-05-01T17:03:55.797Z,14.90
2018-05-01T17:06:23.376Z,14.90
2018-05-01T17:08:50.962Z,14.90
2018-05-01T17:11:18.542Z,14.90
2018-05-01T17:13:46.827Z,14.80
2018-05-01T17:16:15.155Z,14.90
2018-05-01T17:18:43.591Z,14.80
2018-05-01T17:21:11.912Z,14.90
2018-05-01T17:23:39.568Z,14.90
2018-05-01T17:26:07.189Z,15.00
2018-05-01T17:28:35.569Z,15.00
2018-05-01T17:31:04.130Z,14.90
2018-05-01T17:33:31.702Z,15.00
2018-05-01T17:35:59.318Z,15.00
2018-05-01T17:38:27.317Z,15.00
2018-05-01T17:40:54.947Z,15.00
2018-05-01T17:43:22.642Z,15.00
2018-05-01T17:45:50.316Z,14.90
2018-05-01T17:48:18.701Z,14.90
2018-05-01T17:50:46.307Z,14.90
2018-05-01T17:53:14.032Z,15.00
2018-05-01T17:55:41.814Z,15.00
2018-05-01T17:58:09.430Z,14.90
2018-05-01T18:00:37.960Z,14.80
2018-05-01T18:03:05.536Z,14.80
2018-05-01T18:05:33.159Z,14.80
2018-05-01T18:08:01.272Z,14.80
2018-05-01T18:10:29.143Z,14.90
2018-05-01T18:12:56.763Z,14.80
2018-05-01T18:15:25.118Z,14.80
2018-05-01T18:17:52.950Z,14.80
2018-05-01T18:20:21.097Z,14.80
2018-05-01T18:22:49.527Z,14.80
2018-05-01T18:25:17.163Z,14.80
2018-05-01T18:27:44.849Z,14.80
2018-05-01T18:30:12.929Z,14.80
2018-05-01T18:32:40.584Z,14.80
2018-05-01T18:35:08.441Z,14.80
2018-05-01T18:37:36.919Z,14.80
2018-05-01T18:40:06.376Z,14.70
2018-05-01T18:42:34.271Z,14.70
2018-05-01T18:45:02.248Z,14.70
2018-05-01T18:47:31.767Z,14.60
2018-05-01T18:50:00.358Z,14.60
2018-05-01T18:52:29.138Z,14.60
2018-05-01T18:54:57.179Z,14.60
2018-05-01T18:57:25.027Z,14.60
2018-05-01T19:02:25.775Z,14.60
2018-05-01T19:04:53.517Z,14.60
2018-05-01T19:07:21.459Z,14.60
2018-05-01T19:09:49.320Z,14.60
2018-05-01T19:12:17.608Z,14.60
2018-05-01T19:14:45.575Z,14.50
2018-05-01T19:17:13.772Z,14.50
2018-05-01T19:19:41.618Z,14.50
2018-05-01T19:22:10.199Z,14.50
2018-05-01T19:24:38.091Z,14.50
2018-05-01T19:27:05.854Z,14.50
2018-05-01T19:29:33.645Z,14.50
2018-05-01T19:32:01.415Z,14.50
2018-05-01T19:34:29.264Z,14.50
2018-05-01T19:36:57.249Z,14.50
2018-05-01T19:39:25.313Z,14.50
2018-05-01T19:41:53.054Z,14.50
2018-05-01T19:44:20.958Z,14.50
2018-05-01T19:46:48.819Z,14.50
2018-05-01T19:49:16.848Z,14.50
2018-05-01T19:51:46.325Z,14.50
2018-05-01T19:54:14.128Z,14.40
2018-05-01T19:56:42.510Z,14.40
2018-05-01T19:59:11.283Z,14.50
2018-05-01T20:01:38.861Z,14.50
2018-05-01T20:04:06.572Z,14.40
2018-05-01T20:06:34.185Z,14.40
2018-05-01T20:09:01.833Z,14.40
2018-05-01T20:11:29.673Z,14.40
2018-05-01T20:13:58.038Z,14.40
2018-05-01T20:16:26.399Z,14.30
2018-05-01T20:18:54.014Z,14.30
2018-05-01T20:21:21.646Z,14.30
2018-05-01T20:23:49.986Z,14.20
2018-05-01T20:26:17.592Z,14.20
2018-05-01T20:28:45.944Z,14.20
2018-05-01T20:31:13.844Z,14.20
2018-05-01T20:33:42.183Z,14.10
2018-05-01T20:36:09.728Z,14.10
2018-05-01T20:38:37.322Z,14.10
2018-05-01T20:41:04.845Z,14.10
2018-05-01T20:43:32.397Z,14.10
2018-05-01T20:45:59.973Z,14.10
2018-05-01T20:48:27.501Z,14.00
2018-05-01T20:50:55.057Z,14.00
2018-05-01T20:53:24.103Z,13.90
2018-05-01T20:55:51.653Z,13.90
2018-05-01T20:58:19.945Z,13.80
2018-05-01T21:00:47.466Z,13.80
2018-05-01T21:03:15.008Z,13.70
2018-05-01T21:05:42.535Z,13.70
2018-05-01T21:08:10.078Z,13.70
2018-05-01T21:10:38.356Z,13.60
2018-05-01T21:13:06.639Z,13.50
2018-05-01T21:15:34.945Z,13.40
2018-05-01T21:18:02.467Z,13.30
2018-05-01T21:20:30.771Z,13.30
2018-05-01T21:22:59.036Z,13.30
2018-05-01T21:25:27.321Z,13.20
2018-05-01T21:27:54.843Z,13.20
2018-05-01T21:30:22.381Z,13.20
2018-05-01T21:32:49.909Z,13.10
2018-05-01T21:35:17.419Z,13.10
2018-05-01T21:37:44.946Z,13.00
2018-05-01T21:40:13.221Z,13.00
2018-05-01T21:42:40.745Z,13.00
2018-05-01T21:45:08.256Z,13.00
2018-05-01T21:47:36.558Z,13.00
2018-05-01T21:50:04.069Z,13.00
2018-05-01T21:52:31.593Z,12.90
2018-05-01T21:54:59.117Z,12.90
2018-05-01T21:57:27.401Z,13.00
2018-05-01T21:59:55.710Z,12.90
2018-05-01T22:02:23.241Z,12.90
2018-05-01T22:04:50.793Z,12.90
2018-05-01T22:07:18.299Z,12.80
2018-05-01T22:09:45.821Z,12.70
2018-05-01T22:12:13.335Z,12.70
2018-05-01T22:14:40.857Z,12.70
2018-05-01T22:17:08.371Z,12.70
2018-05-01T22:19:35.873Z,12.70
2018-05-01T22:22:03.390Z,12.60
2018-05-01T22:24:30.908Z,12.60
2018-05-01T22:26:58.440Z,12.60
2018-05-01T22:29:25.943Z,12.60
2018-05-01T22:31:53.469Z,12.50
2018-05-01T22:34:21.077Z,12.50
2018-05-01T22:36:48.522Z,12.40
2018-05-01T22:39:16.041Z,12.50
2018-05-01T22:41:43.545Z,12.50
2018-05-01T22:44:11.064Z,12.50
2018-05-01T22:46:38.575Z,12.60
2018-05-01T22:49:06.090Z,12.60
2018-05-01T22:51:33.601Z,12.50
2018-05-01T22:54:01.137Z,12.40
2018-05-01T22:56:28.644Z,12.40
2018-05-01T22:58:56.941Z,12.40
2018-05-01T23:01:25.219Z,12.30
2018-05-01T23:03:53.486Z,12.20
2018-05-01T23:06:21.017Z,12.30
2018-05-01T23:08:48.521Z,12.20
2018-05-01T23:11:16.814Z,12.30
2018-05-01T23:13:45.117Z,12.20
2018-05-01T23:16:12.611Z,12.20
2018-05-01T23:18:40.135Z,12.20
2018-05-01T23:21:07.655Z,12.20
2018-05-01T23:23:35.187Z,12.10
2018-05-01T23:26:02.700Z,12.00
2018-05-01T23:28:30.981Z,12.00
2018-05-01T23:30:59.283Z,12.00
2018-05-01T23:33:26.779Z,12.00
2018-05-01T23:35:54.307Z,11.90
2018-05-01T23:38:22.598Z,11.90
2018-05-01T23:40:50.134Z,11.90
2018-05-01T23:43:18.409Z,11.80
2018-05-01T23:45:46.690Z,11.80
2018-05-01T23:48:14.219Z,11.70
2018-05-01T23:50:41.735Z,11.70
2018-05-01T23:53:10.021Z,11.70
2018-05-01T23:55:38.314Z,11.60
2018-05-01T23:58:05.840Z,11.60
